Time;durP1;ratioP1;P1;durP2;ratioP2;P2;SDS_P1;SDS_P2;PMS_P1;PMS_P2;Temp;Humidity;BMP_temperature;BMP_pressure;BME280_temperature;BME280_humidity;BME280_pressure;Samples;Min_cycle;Max_cycle;Signal;HPM_P1;HPM_P2
2024/04/01 00:00:16;;;;;;;2.85;2.63;;;;;;;11.31;73.69;99251.91;15604220;28;20061;-51
2024/04/01 00:07:51;;;;;;;2.17;1.98;;;;;;;11.23;73.69;99245.88;15608886;28;20128;-52
2024/04/01 00:15:29;;;;;;;2.17;1.48;;;;;;;11.16;73.84;99233.72;15620969;28;20052;-55
2024/04/01 00:23:02;;;;;;;0.47;0.43;;;;;;;10.98;74.81;99208.81;15594888;28;20041;-54
2024/04/01 00:30:38;;;;;;;2.67;1.05;;;;;;;11.03;74.45;99205.38;15598201;28;20375;-53
2024/04/01 00:38:13;;;;;;;2.05;1.35;;;;;;;10.86;74.56;99194.69;15617903;28;20057;-53
2024/04/01 00:45:50;;;;;;;3.00;2.20;;;;;;;10.87;74.01;99182.13;15610134;28;20046;-56
2024/04/01 00:53:24;;;;;;;0.32;0.32;;;;;;;10.75;75.34;99165.31;15578171;28;20041;-54
2024/04/01 01:01:00;;;;;;;0.50;0.50;;;;;;;10.83;76.13;99157.66;15611587;28;20037;-56
2024/04/01 01:08:34;;;;;;;2.22;2.03;;;;;;;10.96;75.74;99175.25;15617365;28;20064;-54
2024/04/01 01:16:10;;;;;;;11.00;3.33;;;;;;;10.90;75.62;99190.47;15606438;28;20053;-52
2024/04/01 01:23:46;;;;;;;1.30;1.20;;;;;;;10.85;76.08;99185.03;15598320;28;20054;-53
2024/04/01 01:31:20;;;;;;;0.38;0.38;;;;;;;10.90;75.23;99182.41;15603638;28;20049;-52
2024/04/01 01:38:57;;;;;;;1.23;1.08;;;;;;;10.64;76.10;99172.44;15610026;28;20046;-52
2024/04/01 01:46:36;;;;;;;0.60;0.60;;;;;;;9.95;83.46;99156.69;15533446;23;20161;-48
2024/04/01 01:54:12;;;;;;;0.82;0.82;;;;;;;10.54;82.08;99157.03;15409114;28;20051;-47
2024/04/01 02:01:45;;;;;;;3.88;2.47;;;;;;;10.77;80.88;99160.50;15407502;28;20043;-47
2024/04/01 02:09:26;;;;;;;3.05;2.28;;;;;;;10.80;82.41;99162.69;15396468;28;20074;-48
2024/04/01 02:16:59;;;;;;;0.70;0.65;;;;;;;10.75;83.91;99144.66;15391809;28;20042;-47
2024/04/01 02:24:37;;;;;;;2.33;2.13;;;;;;;10.33;85.80;99137.16;15401246;28;20452;-47
2024/04/01 02:32:11;;;;;;;0.82;0.75;;;;;;;9.91;87.86;99128.75;15414172;28;20133;-47
2024/04/01 02:39:46;;;;;;;7.95;3.42;;;;;;;9.74;88.96;99128.75;15429631;28;20073;-47
2024/04/01 02:47:20;;;;;;;16.20;2.35;;;;;;;10.02;86.59;99130.50;15383847;28;20282;-48
2024/04/01 02:54:57;;;;;;;1.45;1.05;;;;;;;9.71;89.09;99122.03;15406099;28;20043;-48
2024/04/01 03:02:30;;;;;;;1.42;1.33;;;;;;;9.91;87.97;99115.34;15409007;28;20213;-47
2024/04/01 03:10:06;;;;;;;0.70;0.70;;;;;;;9.85;87.70;99108.31;15399597;28;20059;-48
2024/04/01 03:17:41;;;;;;;5.88;2.47;;;;;;;9.65;88.83;99103.41;15398630;28;20460;-48
2024/04/01 03:25:31;;;;;;;0.73;0.73;;;;;;;9.65;89.08;99095.38;15392008;28;20453;-47
2024/04/01 03:33:05;;;;;;;5.13;2.78;;;;;;;10.00;87.15;99088.94;15397251;28;20067;-50
2024/04/01 03:40:41;;;;;;;2.67;2.30;;;;;;;10.40;83.76;99077.97;15396222;28;20046;-46
2024/04/01 03:48:19;;;;;;;0.68;0.68;;;;;;;9.97;85.60;99061.56;15382805;28;20093;-47
2024/04/01 03:55:56;;;;;;;6.47;2.72;;;;;;;9.65;88.55;99041.81;15381554;28;20031;-47
2024/04/01 04:03:31;;;;;;;1.23;1.10;;;;;;;9.53;89.69;99041.09;15400597;28;20394;-46
2024/04/01 04:11:14;;;;;;;0.50;0.50;;;;;;;10.08;87.69;99035.72;15407790;28;20411;-48
2024/04/01 04:18:48;;;;;;;0.75;0.75;;;;;;;10.72;83.70;99027.06;15394210;28;20038;-51
2024/04/01 04:26:23;;;;;;;2.70;1.85;;;;;;;11.07;80.69;99021.25;15405139;28;20035;-50
2024/04/01 04:33:59;;;;;;;0.68;0.68;;;;;;;10.88;81.16;99020.00;15421446;28;20079;-52
2024/04/01 04:41:34;;;;;;;1.58;1.48;;;;;;;10.22;84.46;99025.44;15393348;28;20043;-49
2024/04/01 04:49:09;;;;;;;3.72;3.25;;;;;;;10.48;83.78;99027.38;15410974;28;20227;-47
2024/04/01 04:56:47;;;;;;;2.67;2.05;;;;;;;10.36;83.79;99037.44;15402303;28;20035;-50
2024/04/01 05:04:23;;;;;;;1.20;1.10;;;;;;;10.37;84.07;99022.97;15406913;28;20064;-51
2024/04/01 05:12:09;;;;;;;0.90;0.90;;;;;;;9.69;88.18;99014.28;15409934;28;20039;-50
2024/04/01 05:20:00;;;;;;;1.73;1.63;;;;;;;9.83;87.64;98976.41;15397690;28;20047;-47
2024/04/01 05:27:37;;;;;;;6.55;3.47;;;;;;;9.97;88.44;98970.44;15394474;28;20047;-47
2024/04/01 05:35:13;;;;;;;2.83;1.17;;;;;;;9.93;88.22;98939.03;15422306;28;20055;-47
2024/04/01 05:42:48;;;;;;;0.55;0.30;;;;;;;10.18;87.94;98941.19;15406223;28;20513;-49
2024/04/01 05:50:22;;;;;;;1.05;0.98;;;;;;;10.01;89.88;98941.25;15406767;28;20490;-49
2024/04/01 05:58:03;;;;;;;26.77;3.15;;;;;;;10.80;86.49;98972.94;15401399;28;20470;-49
2024/04/01 06:05:40;;;;;;;1.88;1.77;;;;;;;11.58;82.93;98975.94;15380484;28;20089;-50
2024/04/01 06:13:20;;;;;;;4.35;1.65;;;;;;;12.04;79.74;98986.97;15424550;28;20158;-54
2024/04/01 06:20:55;;;;;;;0.55;0.55;;;;;;;11.54;82.06;98990.97;15416736;28;20042;-50
2024/04/01 06:28:30;;;;;;;1.38;1.10;;;;;;;11.32;82.26;98969.59;15387450;28;20046;-47
2024/04/01 06:36:08;;;;;;;2.03;1.02;;;;;;;10.99;84.51;98959.97;15368038;28;20047;-48
2024/04/01 06:43:46;;;;;;;10.50;3.35;;;;;;;11.32;83.16;98944.63;15382915;28;20043;-49
2024/04/01 06:51:20;;;;;;;1.00;0.90;;;;;;;10.84;85.25;98895.41;15380059;28;20073;-53
2024/04/01 06:58:55;;;;;;;0.45;0.45;;;;;;;11.62;82.95;98946.69;15382465;28;73841;-50
2024/04/01 07:07:00;;;;;;;1.73;1.00;;;;;;;11.99;80.36;98947.41;15452977;27;72688;-50
2024/04/01 07:14:33;;;;;;;2.45;2.15;;;;;;;12.38;78.36;98952.38;15639782;28;20437;-47
2024/04/01 07:22:13;;;;;;;3.80;1.88;;;;;;;13.71;73.89;98977.44;15624433;28;20760;-48
2024/04/01 07:29:49;;;;;;;0.57;0.57;;;;;;;13.30;73.26;98960.53;15634086;28;20449;-46
2024/04/01 07:37:25;;;;;;;3.30;1.80;;;;;;;13.22;73.67;98936.81;15627976;28;20471;-48
2024/04/01 07:44:59;;;;;;;4.82;1.25;;;;;;;13.27;73.06;98920.66;15628052;28;20041;-52
2024/04/01 07:52:35;;;;;;;4.40;1.35;;;;;;;13.32;72.96;98909.03;15641457;28;20087;-47
2024/04/01 08:00:17;;;;;;;11.13;1.58;;;;;;;13.52;73.28;98893.66;15623288;28;20468;-49
2024/04/01 08:07:52;;;;;;;2.80;1.10;;;;;;;13.69;70.61;98895.19;15633684;28;20076;-47
2024/04/01 08:15:29;;;;;;;1.38;1.17;;;;;;;14.39;68.35;98887.00;15603866;28;20045;-45
2024/04/01 08:23:05;;;;;;;3.47;2.38;;;;;;;14.16;68.79;98861.50;15578575;28;20038;-49
2024/04/01 08:30:40;;;;;;;1.55;1.08;;;;;;;14.06;68.16;98832.69;15572614;28;20114;-50
2024/04/01 08:38:15;;;;;;;2.10;1.65;;;;;;;14.66;65.88;98835.25;15570567;28;20052;-48
2024/04/01 08:45:51;;;;;;;1.10;1.05;;;;;;;14.99;64.74;98857.91;15585646;28;20461;-45
2024/04/01 08:53:44;;;;;;;1.20;0.90;;;;;;;15.06;64.45;98888.06;15580222;28;20041;-48
2024/04/01 09:01:20;;;;;;;1.02;0.93;;;;;;;15.20;65.24;98872.84;15587793;28;20108;-46
2024/04/01 09:08:56;;;;;;;9.63;1.13;;;;;;;15.70;62.17;98837.38;15581717;28;20064;-48
2024/04/01 09:16:31;;;;;;;0.17;0.17;;;;;;;16.36;60.78;98822.09;15574615;28;20056;-47
2024/04/01 09:24:14;;;;;;;2.50;1.33;;;;;;;17.06;57.41;98825.50;15583528;28;20059;-50
2024/04/01 09:31:49;;;;;;;0.47;0.47;;;;;;;16.69;57.43;98796.63;15589918;28;20506;-52
2024/04/01 09:39:26;;;;;;;1.60;1.48;;;;;;;17.14;55.81;98782.56;15591437;28;20050;-50
2024/04/01 09:47:00;;;;;;;1.05;0.95;;;;;;;16.86;57.23;98763.56;15586019;28;20372;-49
2024/04/01 09:54:37;;;;;;;2.10;1.85;;;;;;;17.18;55.70;98737.47;15590903;28;20145;-48
2024/04/01 10:02:41;;;;;;;0.88;0.80;;;;;;;18.24;51.48;98720.69;15602763;28;20051;-48
2024/04/01 10:11:08;;;;;;;0.73;0.65;;;;;;;20.31;46.44;98699.69;15599613;28;20091;-48
2024/04/01 10:19:19;;;;;;;0.20;0.20;;;;;;;20.49;45.65;98709.44;15447585;28;20045;-48
2024/04/01 10:27:48;;;;;;;8.50;1.95;;;;;;;20.92;43.46;98711.19;15584433;28;20172;-48
2024/04/01 10:35:50;;;;;;;3.75;1.80;;;;;;;20.36;44.52;98713.94;15593657;28;20321;-49
2024/04/01 10:43:53;;;;;;;2.70;1.67;;;;;;;19.85;44.81;98712.88;15587558;28;20045;-49
2024/04/01 10:51:43;;;;;;;0.22;0.22;;;;;;;19.69;45.35;98719.16;15595490;28;20033;-52
2024/04/01 10:59:42;;;;;;;1.77;0.57;;;;;;;19.25;47.46;98729.94;15588621;28;20137;-48
2024/04/01 11:07:43;;;;;;;0.00;0.00;;;;;;;20.09;44.77;98749.72;15601362;28;20045;-51
2024/04/01 11:15:22;;;;;;;0.45;0.45;;;;;;;19.54;43.21;98748.41;15595287;28;20585;-48
2024/04/01 11:23:26;;;;;;;1.83;0.93;;;;;;;19.26;43.33;98753.31;15592304;28;20482;-47
2024/04/01 11:31:17;;;;;;;0.63;0.63;;;;;;;18.71;44.54;98759.19;15571361;28;20410;-49
2024/04/01 11:39:03;;;;;;;2.43;1.80;;;;;;;19.77;43.74;98749.09;15588079;28;20041;-49
2024/04/01 11:46:41;;;;;;;0.20;0.20;;;;;;;20.12;44.61;98694.59;15566880;28;20045;-51
2024/04/01 11:54:25;;;;;;;0.00;0.00;;;;;;;21.57;42.01;98707.13;15599543;28;20114;-50
2024/04/01 12:02:13;;;;;;;1.02;0.77;;;;;;;20.76;41.28;98708.25;15598368;28;20037;-51
2024/04/01 12:09:49;;;;;;;0.95;0.43;;;;;;;20.60;42.19;98699.00;15594324;28;20169;-52
2024/04/01 12:17:24;;;;;;;0.30;0.20;;;;;;;20.45;43.19;98685.88;15590995;28;20128;-50
2024/04/01 12:24:58;;;;;;;0.10;0.10;;;;;;;20.08;42.43;98666.41;15603401;28;20455;-47
2024/04/01 12:32:41;;;;;;;0.98;0.75;;;;;;;20.16;43.30;98662.88;15595287;28;20060;-50
2024/04/01 12:40:19;;;;;;;16.77;0.55;;;;;;;20.39;42.74;98672.41;15605372;28;20057;-46
2024/04/01 12:47:57;;;;;;;2.20;1.55;;;;;;;19.82;43.45;98659.09;15600183;28;20088;-51
2024/04/01 12:55:54;;;;;;;0.13;0.13;;;;;;;19.06;45.66;98658.69;15595833;28;20036;-46
2024/04/01 13:03:50;;;;;;;0.85;0.57;;;;;;;19.01;46.11;98688.75;15576616;28;21003;-46
2024/04/01 13:11:39;;;;;;;0.25;0.25;;;;;;;19.23;46.44;98683.22;15611400;28;20057;-48
2024/04/01 13:19:21;;;;;;;18.98;2.92;;;;;;;18.88;46.91;98671.44;15694795;22;20554;-52
2024/04/01 13:27:13;;;;;;;0.00;0.00;;;;;;;19.41;47.60;98675.09;15676783;28;20055;-55
2024/04/01 13:35:08;;;;;;;0.10;0.10;;;;;;;19.66;46.18;98706.97;15668985;28;20253;-54
2024/04/01 13:42:56;;;;;;;0.10;0.10;;;;;;;21.58;42.47;98708.72;15680090;28;20040;-50
2024/04/01 13:50:42;;;;;;;0.55;0.55;;;;;;;21.23;41.55;98719.06;15672533;28;20397;-54
2024/04/01 13:58:24;;;;;;;0.00;0.00;;;;;;;20.73;42.12;98719.00;15671128;28;20045;-50
2024/04/01 14:06:15;;;;;;;0.82;0.77;;;;;;;20.51;40.04;98739.91;15679712;28;20048;-56
2024/04/01 14:13:57;;;;;;;1.50;0.98;;;;;;;19.81;42.32;98728.25;15666294;28;20049;-47
2024/04/01 14:21:37;;;;;;;1.25;0.45;;;;;;;19.70;42.27;98748.75;15671117;28;20476;-48
2024/04/01 14:29:13;;;;;;;0.28;0.28;;;;;;;19.74;43.21;98747.00;15688894;28;20057;-50
2024/04/01 14:36:53;;;;;;;11.93;0.88;;;;;;;20.05;43.18;98752.31;15662532;28;20044;-49
2024/04/01 14:44:27;;;;;;;20.63;1.35;;;;;;;19.62;46.58;98769.41;15637258;28;20032;-51
2024/04/01 14:52:03;;;;;;;0.57;0.45;;;;;;;19.17;50.07;98806.09;15673149;28;20049;-50
2024/04/01 14:59:37;;;;;;;2.72;1.33;;;;;;;17.89;51.66;98860.78;15665323;28;20041;-49
2024/04/01 15:07:15;;;;;;;2.25;2.05;;;;;;;17.30;54.73;98884.19;15627756;28;20049;-48
2024/04/01 15:14:51;;;;;;;5.97;2.20;;;;;;;16.94;55.93;98906.50;15672911;28;20141;-50
2024/04/01 15:22:27;;;;;;;15.98;3.10;;;;;;;15.92;59.52;98899.06;15669379;28;20421;-51
2024/04/01 15:30:03;;;;;;;2.25;1.60;;;;;;;16.06;60.15;98927.03;15671320;28;20490;-48
2024/04/01 15:37:42;;;;;;;9.43;3.13;;;;;;;15.46;62.12;98957.16;15655202;28;20076;-49
2024/04/01 15:45:18;;;;;;;0.98;0.90;;;;;;;15.39;63.16;98939.66;15665790;28;20029;-49
2024/04/01 15:52:57;;;;;;;0.95;0.77;;;;;;;14.64;64.84;98988.63;15660360;28;20037;-47
2024/04/01 16:00:31;;;;;;;0.13;0.13;;;;;;;14.02;65.28;98988.09;15665185;28;20040;-49
2024/04/01 16:08:08;;;;;;;0.00;0.00;;;;;;;13.92;68.99;99005.13;15663137;28;20091;-48
2024/04/01 16:15:43;;;;;;;0.28;0.28;;;;;;;13.83;70.91;99003.28;15676186;28;20029;-51
2024/04/01 16:23:23;;;;;;;0.82;0.82;;;;;;;13.48;73.56;99008.47;15673715;28;20298;-50
2024/04/01 16:31:03;;;;;;;0.43;0.43;;;;;;;14.32;70.91;99019.56;15696496;28;20606;-48
2024/04/01 16:38:39;;;;;;;1.13;0.68;;;;;;;14.13;71.27;99064.41;15668643;28;20049;-49
2024/04/01 16:46:13;;;;;;;0.10;0.10;;;;;;;14.23;70.67;99094.09;15660971;28;20045;-51
2024/04/01 16:53:51;;;;;;;0.05;0.05;;;;;;;14.16;70.14;99099.75;15666025;28;20140;-51
2024/04/01 17:01:27;;;;;;;7.32;1.02;;;;;;;14.25;67.96;99117.00;15697177;28;20041;-51
2024/04/01 17:09:06;;;;;;;0.75;0.40;;;;;;;14.10;68.83;99116.25;15654318;28;20033;-49
2024/04/01 17:16:40;;;;;;;6.35;1.48;;;;;;;14.12;67.48;99117.56;15658454;28;20111;-52
2024/04/01 17:24:16;;;;;;;0.00;0.00;;;;;;;14.31;66.90;99125.88;15653719;28;20060;-51
2024/04/01 17:31:53;;;;;;;0.43;0.43;;;;;;;14.21;67.58;99118.63;15651117;28;20076;-52
2024/04/01 17:39:29;;;;;;;0.00;0.00;;;;;;;13.95;67.95;99095.50;15651187;28;20136;-49
2024/04/01 17:47:09;;;;;;;0.38;0.28;;;;;;;14.00;68.10;99106.28;15652075;28;20055;-50
2024/04/01 17:54:46;;;;;;;0.65;0.20;;;;;;;13.45;69.28;99124.09;15668027;28;20049;-50
2024/04/01 18:02:20;;;;;;;0.00;0.00;;;;;;;13.17;71.85;99149.63;15645349;28;20037;-50
2024/04/01 18:09:56;;;;;;;0.80;0.38;;;;;;;12.37;79.73;99182.16;15670794;28;20131;-48
2024/04/01 18:17:32;;;;;;;0.10;0.10;;;;;;;12.14;79.81;99187.91;15671324;28;20040;-52
2024/04/01 18:25:32;;;;;;;0.15;0.15;;;;;;;11.88;83.27;99184.22;15645079;28;20347;-54
2024/04/01 18:33:13;;;;;;;0.28;0.20;;;;;;;12.22;79.57;99215.16;15672582;28;20052;-51
2024/04/01 18:40:49;;;;;;;0.00;0.00;;;;;;;12.08;80.53;99224.72;15669582;28;20387;-51
2024/04/01 18:48:23;;;;;;;0.52;0.17;;;;;;;11.89;80.68;99234.22;15646015;28;20657;-49
2024/04/01 18:56:02;;;;;;;0.20;0.20;;;;;;;12.13;77.60;99275.06;15672981;28;20063;-54
2024/04/01 19:03:38;;;;;;;0.32;0.30;;;;;;;11.92;76.63;99276.75;15663159;28;20033;-50
2024/04/01 19:11:16;;;;;;;0.00;0.00;;;;;;;11.66;76.54;99276.47;15658120;28;20055;-49
2024/04/01 19:18:50;;;;;;;0.28;0.28;;;;;;;11.38;76.98;99265.97;15668140;28;20041;-52
2024/04/01 19:26:26;;;;;;;0.00;0.00;;;;;;;11.32;77.02;99275.00;15677281;22;20364;-46
2024/04/01 19:34:00;;;;;;;0.22;0.15;;;;;;;11.20;76.84;99302.00;15673594;28;20139;-48
2024/04/01 19:41:36;;;;;;;0.00;0.00;;;;;;;11.46;75.48;99305.78;15608811;28;20523;-46
2024/04/01 19:49:13;;;;;;;0.00;0.00;;;;;;;11.05;76.47;99296.41;15623536;28;20041;-47
2024/04/01 19:56:49;;;;;;;0.00;0.00;;;;;;;11.13;76.50;99323.66;15651711;28;20382;-47
2024/04/01 20:04:26;;;;;;;0.65;0.20;;;;;;;11.07;76.03;99340.75;15653892;28;20162;-45
2024/04/01 20:12:04;;;;;;;0.00;0.00;;;;;;;11.06;75.74;99349.09;15657415;28;20111;-47
2024/04/01 20:19:41;;;;;;;0.00;0.00;;;;;;;11.12;76.38;99361.50;15672127;28;20049;-49
2024/04/01 20:27:16;;;;;;;0.00;0.00;;;;;;;10.72;77.32;99330.31;15670003;28;20044;-46
2024/04/01 20:34:52;;;;;;;0.13;0.13;;;;;;;10.66;77.98;99350.91;15639734;28;20045;-48
2024/04/01 20:42:27;;;;;;;0.00;0.00;;;;;;;10.55;77.82;99314.25;15624955;28;20136;-47
2024/04/01 20:50:14;;;;;;;0.00;0.00;;;;;;;10.54;77.35;99336.78;15669146;28;20040;-45
2024/04/01 20:57:49;;;;;;;0.00;0.00;;;;;;;10.65;76.29;99349.28;15645988;28;20069;-46
2024/04/01 21:05:27;;;;;;;1.30;0.20;;;;;;;10.57;75.99;99363.09;15649995;28;20197;-49
2024/04/01 21:13:07;;;;;;;;;;;;;;;10.68;75.85;99372.16;15657390;28;20040;-52
2024/04/01 21:20:41;;;;;;;0.10;0.10;;;;;;;10.45;76.09;99391.88;15639032;28;19920;-47
2024/04/01 21:28:19;;;;;;;0.00;0.00;;;;;;;10.35;75.72;99402.41;15649518;28;20091;-48
2024/04/01 21:35:53;;;;;;;0.00;0.00;;;;;;;10.21;75.14;99407.22;15652269;28;20098;-47
2024/04/01 21:43:31;;;;;;;0.00;0.00;;;;;;;10.54;73.97;99429.84;15667843;28;20040;-46
2024/04/01 21:51:05;;;;;;;0.30;0.22;;;;;;;10.37;75.06;99451.28;15649571;28;20518;-46
2024/04/01 21:58:42;;;;;;;0.00;0.00;;;;;;;10.18;74.51;99448.78;15648631;28;20052;-46
2024/04/01 22:06:21;;;;;;;0.00;0.00;;;;;;;10.05;75.21;99446.34;15642544;28;20040;-47
2024/04/01 22:14:00;;;;;;;0.60;0.43;;;;;;;10.12;74.51;99446.25;15634767;28;20544;-46
2024/04/01 22:21:35;;;;;;;0.10;0.10;;;;;;;10.14;74.37;99442.25;15646730;28;20394;-49
2024/04/01 22:29:15;;;;;;;0.65;0.25;;;;;;;10.31;73.58;99469.16;15664133;28;20037;-48
2024/04/01 22:36:49;;;;;;;0.00;0.00;;;;;;;9.97;74.49;99492.31;15653823;28;20501;-48
2024/04/01 22:44:29;;;;;;;0.00;0.00;;;;;;;9.87;72.97;99489.41;15650298;28;20154;-48
2024/04/01 22:52:04;;;;;;;0.15;0.13;;;;;;;10.09;72.03;99511.88;15657323;28;20076;-46
2024/04/01 22:59:39;;;;;;;0.00;0.00;;;;;;;9.95;72.53;99513.19;15652033;28;20110;-46
2024/04/01 23:07:15;;;;;;;0.20;0.20;;;;;;;9.84;73.33;99511.31;15658404;28;20525;-46
2024/04/01 23:14:51;;;;;;;0.00;0.00;;;;;;;9.96;73.18;99523.66;15660307;28;20037;-46
2024/04/01 23:22:25;;;;;;;0.00;0.00;;;;;;;10.02;72.81;99500.44;15651846;28;20049;-48
2024/04/01 23:30:01;;;;;;;0.00;0.00;;;;;;;10.02;71.34;99507.66;15649623;28;20053;-45
2024/04/01 23:37:37;;;;;;;0.05;0.05;;;;;;;10.08;69.03;99504.88;15654227;28;20341;-47
2024/04/01 23:45:12;;;;;;;0.00;0.00;;;;;;;10.13;67.69;99501.47;15658731;28;20038;-48
2024/04/01 23:52:47;;;;;;;0.00;0.00;;;;;;;10.02;66.58;99502.31;15664393;28;20109;-50
